sensor_id;sensor_type;location;lat;lon;timestamp;temperature;humidity
83553;DHT22;73510;50.866;5.420;2023-11-21T00:00:21;10.30;74.10
83553;DHT22;73510;50.866;5.420;2023-11-21T00:02:47;10.30;74.10
83553;DHT22;73510;50.866;5.420;2023-11-21T00:05:14;10.30;74.00
83553;DHT22;73510;50.866;5.420;2023-11-21T00:07:40;10.30;73.90
83553;DHT22;73510;50.866;5.420;2023-11-21T00:10:07;10.30;74.00
83553;DHT22;73510;50.866;5.420;2023-11-21T00:12:37;10.40;74.10
83553;DHT22;73510;50.866;5.420;2023-11-21T00:15:03;10.30;73.90
83553;DHT22;73510;50.866;5.420;2023-11-21T00:17:30;10.40;74.00
83553;DHT22;73510;50.866;5.420;2023-11-21T00:19:56;10.40;74.00
83553;DHT22;73510;50.866;5.420;2023-11-21T00:22:22;10.40;73.80
83553;DHT22;73510;50.866;5.420;2023-11-21T00:24:48;10.40;73.90
83553;DHT22;73510;50.866;5.420;2023-11-21T00:27:14;10.40;73.80
83553;DHT22;73510;50.866;5.420;2023-11-21T00:29:40;10.40;73.80
83553;DHT22;73510;50.866;5.420;2023-11-21T00:32:06;10.40;73.80
83553;DHT22;73510;50.866;5.420;2023-11-21T00:34:32;10.40;73.80
83553;DHT22;73510;50.866;5.420;2023-11-21T00:36:58;10.40;73.90
83553;DHT22;73510;50.866;5.420;2023-11-21T00:39:24;10.30;73.90
83553;DHT22;73510;50.866;5.420;2023-11-21T00:41:51;10.40;73.90
83553;DHT22;73510;50.866;5.420;2023-11-21T00:44:18;10.40;73.80
83553;DHT22;73510;50.866;5.420;2023-11-21T00:46:43;10.40;73.80
83553;DHT22;73510;50.866;5.420;2023-11-21T00:49:09;10.40;73.90
83553;DHT22;73510;50.866;5.420;2023-11-21T00:51:35;10.40;73.80
83553;DHT22;73510;50.866;5.420;2023-11-21T00:54:01;10.40;73.80
83553;DHT22;73510;50.866;5.420;2023-11-21T00:56:27;10.40;73.80
83553;DHT22;73510;50.866;5.420;2023-11-21T00:58:53;10.40;73.70
83553;DHT22;73510;50.866;5.420;2023-11-21T01:01:20;10.40;73.60
83553;DHT22;73510;50.866;5.420;2023-11-21T01:03:46;10.40;73.60
83553;DHT22;73510;50.866;5.420;2023-11-21T01:06:12;10.40;73.60
83553;DHT22;73510;50.866;5.420;2023-11-21T01:08:38;10.40;73.50
83553;DHT22;73510;50.866;5.420;2023-11-21T01:11:04;10.40;73.50
83553;DHT22;73510;50.866;5.420;2023-11-21T01:13:33;10.30;73.60
83553;DHT22;73510;50.866;5.420;2023-11-21T01:15:58;10.30;73.70
83553;DHT22;73510;50.866;5.420;2023-11-21T01:18:24;10.30;73.70
83553;DHT22;73510;50.866;5.420;2023-11-21T01:20:51;10.30;73.60
83553;DHT22;73510;50.866;5.420;2023-11-21T01:23:19;10.30;73.70
83553;DHT22;73510;50.866;5.420;2023-11-21T01:25:44;10.30;73.80
83553;DHT22;73510;50.866;5.420;2023-11-21T01:28:10;10.30;74.00
83553;DHT22;73510;50.866;5.420;2023-11-21T01:30:36;10.30;73.90
83553;DHT22;73510;50.866;5.420;2023-11-21T01:33:01;10.30;73.80
83553;DHT22;73510;50.866;5.420;2023-11-21T01:35:27;10.30;73.70
83553;DHT22;73510;50.866;5.420;2023-11-21T01:37:53;10.30;73.80
83553;DHT22;73510;50.866;5.420;2023-11-21T01:40:18;10.30;73.90
83553;DHT22;73510;50.866;5.420;2023-11-21T01:42:44;10.30;73.90
83553;DHT22;73510;50.866;5.420;2023-11-21T01:45:12;10.30;73.90
83553;DHT22;73510;50.866;5.420;2023-11-21T01:47:39;10.30;73.90
83553;DHT22;73510;50.866;5.420;2023-11-21T01:50:07;10.30;73.90
83553;DHT22;73510;50.866;5.420;2023-11-21T01:52:35;10.30;74.00
83553;DHT22;73510;50.866;5.420;2023-11-21T01:55:01;10.30;74.00
83553;DHT22;73510;50.866;5.420;2023-11-21T01:57:26;10.30;74.00
83553;DHT22;73510;50.866;5.420;2023-11-21T01:59:54;10.40;73.90
83553;DHT22;73510;50.866;5.420;2023-11-21T02:02:20;10.40;73.80
83553;DHT22;73510;50.866;5.420;2023-11-21T02:04:45;10.40;73.80
83553;DHT22;73510;50.866;5.420;2023-11-21T02:07:11;10.40;73.80
83553;DHT22;73510;50.866;5.420;2023-11-21T02:09:37;10.40;73.90
83553;DHT22;73510;50.866;5.420;2023-11-21T02:12:08;10.40;74.00
83553;DHT22;73510;50.866;5.420;2023-11-21T02:14:35;10.40;74.00
83553;DHT22;73510;50.866;5.420;2023-11-21T02:17:02;10.40;74.10
83553;DHT22;73510;50.866;5.420;2023-11-21T02:19:29;10.40;74.00
83553;DHT22;73510;50.866;5.420;2023-11-21T02:21:57;10.40;74.10
83553;DHT22;73510;50.866;5.420;2023-11-21T02:24:32;10.40;74.00
83553;DHT22;73510;50.866;5.420;2023-11-21T02:26:58;10.40;74.10
83553;DHT22;73510;50.866;5.420;2023-11-21T02:29:24;10.50;73.90
83553;DHT22;73510;50.866;5.420;2023-11-21T02:31:54;10.40;73.90
83553;DHT22;73510;50.866;5.420;2023-11-21T02:34:21;10.50;73.90
83553;DHT22;73510;50.866;5.420;2023-11-21T02:36:47;10.50;73.80
83553;DHT22;73510;50.866;5.420;2023-11-21T02:39:15;10.40;73.80
83553;DHT22;73510;50.866;5.420;2023-11-21T02:41:42;10.40;73.80
83553;DHT22;73510;50.866;5.420;2023-11-21T02:44:09;10.40;73.80
83553;DHT22;73510;50.866;5.420;2023-11-21T02:46:35;10.40;74.10
83553;DHT22;73510;50.866;5.420;2023-11-21T02:49:02;10.40;74.10
83553;DHT22;73510;50.866;5.420;2023-11-21T02:51:29;10.40;74.20
83553;DHT22;73510;50.866;5.420;2023-11-21T02:53:54;10.40;74.20
83553;DHT22;73510;50.866;5.420;2023-11-21T02:56:26;10.40;74.20
83553;DHT22;73510;50.866;5.420;2023-11-21T02:58:55;10.50;74.20
83553;DHT22;73510;50.866;5.420;2023-11-21T03:01:21;10.50;74.00
83553;DHT22;73510;50.866;5.420;2023-11-21T03:03:46;10.50;73.90
83553;DHT22;73510;50.866;5.420;2023-11-21T03:06:17;10.50;74.00
83553;DHT22;73510;50.866;5.420;2023-11-21T03:08:43;10.40;74.00
83553;DHT22;73510;50.866;5.420;2023-11-21T03:11:08;10.40;74.10
83553;DHT22;73510;50.866;5.420;2023-11-21T03:13:34;10.50;74.10
83553;DHT22;73510;50.866;5.420;2023-11-21T03:15:59;10.50;74.00
83553;DHT22;73510;50.866;5.420;2023-11-21T03:18:25;10.50;74.10
83553;DHT22;73510;50.866;5.420;2023-11-21T03:20:52;10.50;74.20
83553;DHT22;73510;50.866;5.420;2023-11-21T03:23:19;10.50;74.00
83553;DHT22;73510;50.866;5.420;2023-11-21T03:25:45;10.50;74.00
83553;DHT22;73510;50.866;5.420;2023-11-21T03:28:10;10.50;73.90
83553;DHT22;73510;50.866;5.420;2023-11-21T03:30:36;10.50;74.00
83553;DHT22;73510;50.866;5.420;2023-11-21T03:33:02;10.50;74.00
83553;DHT22;73510;50.866;5.420;2023-11-21T03:35:27;10.50;74.10
83553;DHT22;73510;50.866;5.420;2023-11-21T03:37:53;10.50;74.20
83553;DHT22;73510;50.866;5.420;2023-11-21T03:40:19;10.50;74.20
83553;DHT22;73510;50.866;5.420;2023-11-21T03:42:47;10.50;74.20
83553;DHT22;73510;50.866;5.420;2023-11-21T03:45:13;10.50;74.20
83553;DHT22;73510;50.866;5.420;2023-11-21T03:47:43;10.50;74.20
83553;DHT22;73510;50.866;5.420;2023-11-21T03:50:09;10.50;74.20
83553;DHT22;73510;50.866;5.420;2023-11-21T03:52:35;10.50;74.40
83553;DHT22;73510;50.866;5.420;2023-11-21T03:55:01;10.50;74.30
83553;DHT22;73510;50.866;5.420;2023-11-21T03:57:27;10.50;74.30
83553;DHT22;73510;50.866;5.420;2023-11-21T03:59:53;10.50;74.30
83553;DHT22;73510;50.866;5.420;2023-11-21T04:02:20;10.50;74.40
83553;DHT22;73510;50.866;5.420;2023-11-21T04:04:45;10.50;74.40
83553;DHT22;73510;50.866;5.420;2023-11-21T04:07:11;10.50;74.30
83553;DHT22;73510;50.866;5.420;2023-11-21T04:09:39;10.50;74.40
83553;DHT22;73510;50.866;5.420;2023-11-21T04:12:05;10.50;74.40
83553;DHT22;73510;50.866;5.420;2023-11-21T04:14:31;10.50;74.30
83553;DHT22;73510;50.866;5.420;2023-11-21T04:16:57;10.50;74.30
83553;DHT22;73510;50.866;5.420;2023-11-21T04:19:23;10.50;74.20
83553;DHT22;73510;50.866;5.420;2023-11-21T04:21:48;10.50;74.10
83553;DHT22;73510;50.866;5.420;2023-11-21T04:24:14;10.50;74.20
83553;DHT22;73510;50.866;5.420;2023-11-21T04:26:41;10.50;74.20
83553;DHT22;73510;50.866;5.420;2023-11-21T04:29:07;10.50;74.10
83553;DHT22;73510;50.866;5.420;2023-11-21T04:31:32;10.50;74.00
83553;DHT22;73510;50.866;5.420;2023-11-21T04:33:58;10.50;74.10
83553;DHT22;73510;50.866;5.420;2023-11-21T04:36:24;10.50;74.00
83553;DHT22;73510;50.866;5.420;2023-11-21T04:38:49;10.50;73.90
83553;DHT22;73510;50.866;5.420;2023-11-21T04:41:15;10.50;73.90
83553;DHT22;73510;50.866;5.420;2023-11-21T04:43:41;10.50;74.00
83553;DHT22;73510;50.866;5.420;2023-11-21T04:46:07;10.50;74.00
83553;DHT22;73510;50.866;5.420;2023-11-21T04:48:34;10.50;73.90
83553;DHT22;73510;50.866;5.420;2023-11-21T04:50:59;10.50;73.90
83553;DHT22;73510;50.866;5.420;2023-11-21T04:53:25;10.50;73.90
83553;DHT22;73510;50.866;5.420;2023-11-21T04:55:51;10.50;73.90
83553;DHT22;73510;50.866;5.420;2023-11-21T04:58:17;10.50;73.80
83553;DHT22;73510;50.866;5.420;2023-11-21T05:00:42;10.50;73.90
83553;DHT22;73510;50.866;5.420;2023-11-21T05:03:09;10.50;74.00
83553;DHT22;73510;50.866;5.420;2023-11-21T05:05:36;10.50;73.90
83553;DHT22;73510;50.866;5.420;2023-11-21T05:08:02;10.40;73.90
83553;DHT22;73510;50.866;5.420;2023-11-21T05:10:28;10.40;73.90
83553;DHT22;73510;50.866;5.420;2023-11-21T05:12:54;10.50;73.90
83553;DHT22;73510;50.866;5.420;2023-11-21T05:15:21;10.50;73.90
83553;DHT22;73510;50.866;5.420;2023-11-21T05:17:47;10.50;74.00
83553;DHT22;73510;50.866;5.420;2023-11-21T05:20:15;10.50;73.80
83553;DHT22;73510;50.866;5.420;2023-11-21T05:22:49;10.40;73.90
83553;DHT22;73510;50.866;5.420;2023-11-21T05:25:16;10.40;74.00
83553;DHT22;73510;50.866;5.420;2023-11-21T05:27:44;10.40;73.80
83553;DHT22;73510;50.866;5.420;2023-11-21T05:30:10;10.40;73.80
83553;DHT22;73510;50.866;5.420;2023-11-21T05:32:38;10.40;73.90
83553;DHT22;73510;50.866;5.420;2023-11-21T05:35:04;10.40;73.80
83553;DHT22;73510;50.866;5.420;2023-11-21T05:37:35;10.30;73.90
83553;DHT22;73510;50.866;5.420;2023-11-21T05:40:01;10.40;73.90
83553;DHT22;73510;50.866;5.420;2023-11-21T05:42:32;10.40;73.90
83553;DHT22;73510;50.866;5.420;2023-11-21T05:44:58;10.40;73.90
83553;DHT22;73510;50.866;5.420;2023-11-21T05:47:44;10.40;73.90
83553;DHT22;73510;50.866;5.420;2023-11-21T05:50:13;10.40;73.90
83553;DHT22;73510;50.866;5.420;2023-11-21T05:52:41;10.40;74.00
83553;DHT22;73510;50.866;5.420;2023-11-21T05:55:07;10.40;73.90
83553;DHT22;73510;50.866;5.420;2023-11-21T05:57:37;10.40;74.00
83553;DHT22;73510;50.866;5.420;2023-11-21T06:00:05;10.40;73.90
83553;DHT22;73510;50.866;5.420;2023-11-21T06:02:41;10.50;74.00
83553;DHT22;73510;50.866;5.420;2023-11-21T06:05:08;10.50;74.00
83553;DHT22;73510;50.866;5.420;2023-11-21T06:07:34;10.40;74.10
83553;DHT22;73510;50.866;5.420;2023-11-21T06:10:01;10.50;74.00
83553;DHT22;73510;50.866;5.420;2023-11-21T06:12:28;10.50;74.00
83553;DHT22;73510;50.866;5.420;2023-11-21T06:14:54;10.50;74.10
83553;DHT22;73510;50.866;5.420;2023-11-21T06:17:21;10.50;74.00
83553;DHT22;73510;50.866;5.420;2023-11-21T06:19:47;10.50;74.00
83553;DHT22;73510;50.866;5.420;2023-11-21T06:22:12;10.50;74.10
83553;DHT22;73510;50.866;5.420;2023-11-21T06:24:38;10.50;74.00
83553;DHT22;73510;50.866;5.420;2023-11-21T06:27:06;10.50;74.00
83553;DHT22;73510;50.866;5.420;2023-11-21T06:29:32;10.50;74.00
83553;DHT22;73510;50.866;5.420;2023-11-21T06:31:57;10.50;74.00
83553;DHT22;73510;50.866;5.420;2023-11-21T06:34:24;10.50;74.00
83553;DHT22;73510;50.866;5.420;2023-11-21T06:36:49;10.50;74.00
83553;DHT22;73510;50.866;5.420;2023-11-21T06:39:15;10.50;74.00
83553;DHT22;73510;50.866;5.420;2023-11-21T06:41:42;10.50;74.00
83553;DHT22;73510;50.866;5.420;2023-11-21T06:44:08;10.50;74.10
83553;DHT22;73510;50.866;5.420;2023-11-21T06:46:34;10.50;74.00
83553;DHT22;73510;50.866;5.420;2023-11-21T06:49:00;10.50;74.00
83553;DHT22;73510;50.866;5.420;2023-11-21T06:51:26;10.50;74.00
83553;DHT22;73510;50.866;5.420;2023-11-21T06:53:51;10.50;74.10
83553;DHT22;73510;50.866;5.420;2023-11-21T06:56:18;10.50;74.00
83553;DHT22;73510;50.866;5.420;2023-11-21T06:58:46;10.50;73.90
83553;DHT22;73510;50.866;5.420;2023-11-21T07:01:13;10.50;73.80
83553;DHT22;73510;50.866;5.420;2023-11-21T07:03:39;10.50;73.80
83553;DHT22;73510;50.866;5.420;2023-11-21T07:06:06;10.50;74.00
83553;DHT22;73510;50.866;5.420;2023-11-21T07:08:33;10.50;73.90
83553;DHT22;73510;50.866;5.420;2023-11-21T07:10:59;10.50;74.10
83553;DHT22;73510;50.866;5.420;2023-11-21T07:13:24;10.50;74.10
83553;DHT22;73510;50.866;5.420;2023-11-21T07:15:51;10.60;74.10
83553;DHT22;73510;50.866;5.420;2023-11-21T07:18:17;10.60;73.90
83553;DHT22;73510;50.866;5.420;2023-11-21T07:20:43;10.60;73.90
83553;DHT22;73510;50.866;5.420;2023-11-21T07:23:09;10.60;73.90
83553;DHT22;73510;50.866;5.420;2023-11-21T07:25:35;10.60;73.90
83553;DHT22;73510;50.866;5.420;2023-11-21T07:28:01;10.60;74.00
83553;DHT22;73510;50.866;5.420;2023-11-21T07:30:27;10.60;74.00
83553;DHT22;73510;50.866;5.420;2023-11-21T07:32:53;10.60;73.90
83553;DHT22;73510;50.866;5.420;2023-11-21T07:35:19;10.60;73.90
83553;DHT22;73510;50.866;5.420;2023-11-21T07:37:44;10.60;73.90
83553;DHT22;73510;50.866;5.420;2023-11-21T07:40:10;10.60;73.80
83553;DHT22;73510;50.866;5.420;2023-11-21T07:42:37;10.60;73.90
83553;DHT22;73510;50.866;5.420;2023-11-21T07:45:05;10.60;73.80
83553;DHT22;73510;50.866;5.420;2023-11-21T07:47:32;10.60;73.90
83553;DHT22;73510;50.866;5.420;2023-11-21T07:50:00;10.60;74.00
83553;DHT22;73510;50.866;5.420;2023-11-21T07:52:28;10.60;74.10
83553;DHT22;73510;50.866;5.420;2023-11-21T07:54:54;10.60;74.00
83553;DHT22;73510;50.866;5.420;2023-11-21T07:57:19;10.70;74.00
83553;DHT22;73510;50.866;5.420;2023-11-21T08:36:09;10.90;74.00
83553;DHT22;73510;50.866;5.420;2023-11-21T08:41:01;11.00;74.10
83553;DHT22;73510;50.866;5.420;2023-11-21T08:43:27;11.00;74.00
83553;DHT22;73510;50.866;5.420;2023-11-21T08:45:53;11.00;74.10
83553;DHT22;73510;50.866;5.420;2023-11-21T08:48:18;11.10;74.00
83553;DHT22;73510;50.866;5.420;2023-11-21T08:50:44;11.10;74.00
83553;DHT22;73510;50.866;5.420;2023-11-21T08:53:10;11.10;74.10
83553;DHT22;73510;50.866;5.420;2023-11-21T08:55:36;11.10;73.90
83553;DHT22;73510;50.866;5.420;2023-11-21T08:58:02;11.20;73.80
83553;DHT22;73510;50.866;5.420;2023-11-21T09:00:31;11.20;73.80
83553;DHT22;73510;50.866;5.420;2023-11-21T09:02:57;11.30;73.80
83553;DHT22;73510;50.866;5.420;2023-11-21T09:05:23;11.30;73.70
83553;DHT22;73510;50.866;5.420;2023-11-21T09:07:48;11.30;73.60
83553;DHT22;73510;50.866;5.420;2023-11-21T09:10:14;11.30;73.70
83553;DHT22;73510;50.866;5.420;2023-11-21T09:12:40;11.40;73.60
83553;DHT22;73510;50.866;5.420;2023-11-21T09:15:09;11.30;73.60
83553;DHT22;73510;50.866;5.420;2023-11-21T09:17:36;11.40;73.50
83553;DHT22;73510;50.866;5.420;2023-11-21T09:20:03;11.40;73.50
83553;DHT22;73510;50.866;5.420;2023-11-21T09:22:33;11.40;73.50
83553;DHT22;73510;50.866;5.420;2023-11-21T09:24:59;11.40;73.40
83553;DHT22;73510;50.866;5.420;2023-11-21T09:27:24;11.40;73.30
83553;DHT22;73510;50.866;5.420;2023-11-21T09:29:53;11.40;73.10
83553;DHT22;73510;50.866;5.420;2023-11-21T09:32:19;11.40;73.50
83553;DHT22;73510;50.866;5.420;2023-11-21T09:34:47;11.40;73.60
83553;DHT22;73510;50.866;5.420;2023-11-21T09:37:13;11.50;73.40
83553;DHT22;73510;50.866;5.420;2023-11-21T09:39:40;11.50;73.30
83553;DHT22;73510;50.866;5.420;2023-11-21T09:42:15;11.50;73.30
83553;DHT22;73510;50.866;5.420;2023-11-21T09:47:57;11.50;73.40
83553;DHT22;73510;50.866;5.420;2023-11-21T09:50:24;11.50;73.50
83553;DHT22;73510;50.866;5.420;2023-11-21T09:53:19;11.60;73.60
83553;DHT22;73510;50.866;5.420;2023-11-21T10:05:31;11.70;73.20
83553;DHT22;73510;50.866;5.420;2023-11-21T10:07:59;11.70;73.30
83553;DHT22;73510;50.866;5.420;2023-11-21T10:10:26;11.70;73.20
83553;DHT22;73510;50.866;5.420;2023-11-21T10:12:56;11.70;73.40
83553;DHT22;73510;50.866;5.420;2023-11-21T10:15:23;11.70;73.40
83553;DHT22;73510;50.866;5.420;2023-11-21T10:22:42;11.80;73.50
83553;DHT22;73510;50.866;5.420;2023-11-21T10:25:08;11.90;73.40
83553;DHT22;73510;50.866;5.420;2023-11-21T10:27:35;11.90;73.30
83553;DHT22;73510;50.866;5.420;2023-11-21T10:30:02;11.90;73.30
83553;DHT22;73510;50.866;5.420;2023-11-21T10:32:29;11.90;73.00
83553;DHT22;73510;50.866;5.420;2023-11-21T10:34:59;11.90;73.20
83553;DHT22;73510;50.866;5.420;2023-11-21T10:37:35;11.90;73.10
83553;DHT22;73510;50.866;5.420;2023-11-21T10:40:01;12.00;72.90
83553;DHT22;73510;50.866;5.420;2023-11-21T10:42:27;12.00;73.10
83553;DHT22;73510;50.866;5.420;2023-11-21T10:44:55;12.00;73.00
83553;DHT22;73510;50.866;5.420;2023-11-21T10:47:24;12.00;73.00
83553;DHT22;73510;50.866;5.420;2023-11-21T10:49:49;12.10;73.10
83553;DHT22;73510;50.866;5.420;2023-11-21T10:52:15;12.10;73.10
83553;DHT22;73510;50.866;5.420;2023-11-21T10:54:44;12.10;73.20
83553;DHT22;73510;50.866;5.420;2023-11-21T10:57:10;12.20;73.10
83553;DHT22;73510;50.866;5.420;2023-11-21T10:59:36;12.20;73.20
83553;DHT22;73510;50.866;5.420;2023-11-21T11:02:23;12.30;72.90
83553;DHT22;73510;50.866;5.420;2023-11-21T11:05:00;12.30;72.80
83553;DHT22;73510;50.866;5.420;2023-11-21T11:07:27;12.40;73.20
83553;DHT22;73510;50.866;5.420;2023-11-21T11:09:54;12.50;73.00
83553;DHT22;73510;50.866;5.420;2023-11-21T11:12:20;12.50;72.70
83553;DHT22;73510;50.866;5.420;2023-11-21T11:14:48;12.50;72.90
83553;DHT22;73510;50.866;5.420;2023-11-21T11:17:14;12.50;72.80
83553;DHT22;73510;50.866;5.420;2023-11-21T11:19:40;12.50;72.60
83553;DHT22;73510;50.866;5.420;2023-11-21T11:32:55;12.60;72.60
83553;DHT22;73510;50.866;5.420;2023-11-21T11:37:59;12.60;72.50
83553;DHT22;73510;50.866;5.420;2023-11-21T11:40:41;12.60;72.20
83553;DHT22;73510;50.866;5.420;2023-11-21T11:43:10;12.50;72.50
83553;DHT22;73510;50.866;5.420;2023-11-21T11:45:36;12.60;72.90
83553;DHT22;73510;50.866;5.420;2023-11-21T11:48:06;12.60;72.60
83553;DHT22;73510;50.866;5.420;2023-11-21T11:50:32;12.60;72.60
83553;DHT22;73510;50.866;5.420;2023-11-21T11:53:13;12.50;72.90
83553;DHT22;73510;50.866;5.420;2023-11-21T11:55:39;12.50;72.90
83553;DHT22;73510;50.866;5.420;2023-11-21T11:58:06;12.50;73.00
83553;DHT22;73510;50.866;5.420;2023-11-21T12:03:00;12.50;73.20
83553;DHT22;73510;50.866;5.420;2023-11-21T12:05:31;12.50;73.30
83553;DHT22;73510;50.866;5.420;2023-11-21T12:08:01;12.50;73.30
83553;DHT22;73510;50.866;5.420;2023-11-21T12:10:31;12.50;73.30
83553;DHT22;73510;50.866;5.420;2023-11-21T12:12:59;12.50;73.40
83553;DHT22;73510;50.866;5.420;2023-11-21T12:15:25;12.60;73.40
83553;DHT22;73510;50.866;5.420;2023-11-21T12:17:52;12.70;73.30
83553;DHT22;73510;50.866;5.420;2023-11-21T12:20:19;12.70;73.30
83553;DHT22;73510;50.866;5.420;2023-11-21T12:22:53;12.70;73.00
83553;DHT22;73510;50.866;5.420;2023-11-21T12:25:23;12.70;73.00
83553;DHT22;73510;50.866;5.420;2023-11-21T12:27:51;12.70;72.90
83553;DHT22;73510;50.866;5.420;2023-11-21T12:30:18;12.70;73.10
83553;DHT22;73510;50.866;5.420;2023-11-21T12:32:48;12.70;72.50
83553;DHT22;73510;50.866;5.420;2023-11-21T12:35:14;12.70;72.50
83553;DHT22;73510;50.866;5.420;2023-11-21T12:37:42;12.70;72.40
83553;DHT22;73510;50.866;5.420;2023-11-21T12:40:11;12.70;72.60
83553;DHT22;73510;50.866;5.420;2023-11-21T12:42:41;12.70;72.50
83553;DHT22;73510;50.866;5.420;2023-11-21T12:45:31;12.60;72.70
83553;DHT22;73510;50.866;5.420;2023-11-21T12:48:00;12.60;72.90
83553;DHT22;73510;50.866;5.420;2023-11-21T12:50:28;12.70;72.60
83553;DHT22;73510;50.866;5.420;2023-11-21T12:52:58;12.70;72.90
83553;DHT22;73510;50.866;5.420;2023-11-21T12:55:24;12.70;73.00
83553;DHT22;73510;50.866;5.420;2023-11-21T12:57:52;12.70;72.60
83553;DHT22;73510;50.866;5.420;2023-11-21T13:00:27;12.70;72.90
83553;DHT22;73510;50.866;5.420;2023-11-21T13:02:54;12.80;72.70
83553;DHT22;73510;50.866;5.420;2023-11-21T13:05:35;12.80;72.70
83553;DHT22;73510;50.866;5.420;2023-11-21T13:08:04;12.80;72.60
83553;DHT22;73510;50.866;5.420;2023-11-21T13:10:33;12.80;72.70
83553;DHT22;73510;50.866;5.420;2023-11-21T13:13:04;12.80;72.30
83553;DHT22;73510;50.866;5.420;2023-11-21T13:15:40;12.80;72.60
83553;DHT22;73510;50.866;5.420;2023-11-21T13:18:08;12.80;72.70
83553;DHT22;73510;50.866;5.420;2023-11-21T13:20:36;12.80;72.70
83553;DHT22;73510;50.866;5.420;2023-11-21T13:23:08;12.90;72.70
83553;DHT22;73510;50.866;5.420;2023-11-21T13:25:34;12.90;72.60
83553;DHT22;73510;50.866;5.420;2023-11-21T13:28:00;12.90;72.60
83553;DHT22;73510;50.866;5.420;2023-11-21T13:30:26;12.90;72.30
83553;DHT22;73510;50.866;5.420;2023-11-21T13:32:55;12.90;72.60
83553;DHT22;73510;50.866;5.420;2023-11-21T13:35:28;12.90;72.20
83553;DHT22;73510;50.866;5.420;2023-11-21T13:38:12;12.90;72.20
83553;DHT22;73510;50.866;5.420;2023-11-21T13:40:39;12.90;72.40
83553;DHT22;73510;50.866;5.420;2023-11-21T13:43:10;12.90;72.30
83553;DHT22;73510;50.866;5.420;2023-11-21T13:45:37;12.90;72.50
83553;DHT22;73510;50.866;5.420;2023-11-21T13:48:05;12.90;72.40
83553;DHT22;73510;50.866;5.420;2023-11-21T13:50:42;12.90;72.50
83553;DHT22;73510;50.866;5.420;2023-11-21T13:53:14;12.90;72.30
83553;DHT22;73510;50.866;5.420;2023-11-21T13:55:53;12.90;72.40
83553;DHT22;73510;50.866;5.420;2023-11-21T13:58:25;12.90;72.50
83553;DHT22;73510;50.866;5.420;2023-11-21T14:01:21;12.90;72.10
83553;DHT22;73510;50.866;5.420;2023-11-21T14:04:00;12.90;72.20
83553;DHT22;73510;50.866;5.420;2023-11-21T14:06:34;12.80;72.30
83553;DHT22;73510;50.866;5.420;2023-11-21T14:09:07;12.90;72.50
83553;DHT22;73510;50.866;5.420;2023-11-21T14:11:33;12.90;72.40
83553;DHT22;73510;50.866;5.420;2023-11-21T14:13:59;12.90;72.10
83553;DHT22;73510;50.866;5.420;2023-11-21T14:16:25;12.90;72.20
83553;DHT22;73510;50.866;5.420;2023-11-21T14:18:51;12.90;72.30
83553;DHT22;73510;50.866;5.420;2023-11-21T14:21:29;13.00;72.20
83553;DHT22;73510;50.866;5.420;2023-11-21T14:23:55;13.00;72.40
83553;DHT22;73510;50.866;5.420;2023-11-21T14:26:21;13.00;72.20
83553;DHT22;73510;50.866;5.420;2023-11-21T14:28:49;13.00;71.80
83553;DHT22;73510;50.866;5.420;2023-11-21T14:31:15;12.90;71.90
83553;DHT22;73510;50.866;5.420;2023-11-21T14:33:45;12.80;72.10
83553;DHT22;73510;50.866;5.420;2023-11-21T14:36:11;12.80;72.00
83553;DHT22;73510;50.866;5.420;2023-11-21T14:38:37;12.70;72.10
83553;DHT22;73510;50.866;5.420;2023-11-21T14:41:05;12.70;72.20
83553;DHT22;73510;50.866;5.420;2023-11-21T14:43:34;12.70;72.00
83553;DHT22;73510;50.866;5.420;2023-11-21T14:46:01;12.70;72.10
83553;DHT22;73510;50.866;5.420;2023-11-21T14:48:28;12.60;72.20
83553;DHT22;73510;50.866;5.420;2023-11-21T14:51:08;12.60;72.20
83553;DHT22;73510;50.866;5.420;2023-11-21T14:53:53;12.60;72.20
83553;DHT22;73510;50.866;5.420;2023-11-21T14:56:22;12.60;72.30
83553;DHT22;73510;50.866;5.420;2023-11-21T14:58:58;12.60;72.30
83553;DHT22;73510;50.866;5.420;2023-11-21T15:01:34;12.50;72.00
83553;DHT22;73510;50.866;5.420;2023-11-21T15:04:22;12.60;72.40
83553;DHT22;73510;50.866;5.420;2023-11-21T15:07:06;12.50;71.90
83553;DHT22;73510;50.866;5.420;2023-11-21T15:09:32;12.50;71.80
83553;DHT22;73510;50.866;5.420;2023-11-21T15:11:59;12.50;72.10
83553;DHT22;73510;50.866;5.420;2023-11-21T15:14:35;12.50;72.20
83553;DHT22;73510;50.866;5.420;2023-11-21T15:17:02;12.50;72.00
83553;DHT22;73510;50.866;5.420;2023-11-21T15:19:29;12.50;72.30
83553;DHT22;73510;50.866;5.420;2023-11-21T15:21:57;12.50;71.90
83553;DHT22;73510;50.866;5.420;2023-11-21T15:24:23;12.50;72.10
83553;DHT22;73510;50.866;5.420;2023-11-21T15:26:50;12.50;72.20
83553;DHT22;73510;50.866;5.420;2023-11-21T15:29:16;12.50;71.80
83553;DHT22;73510;50.866;5.420;2023-11-21T15:31:42;12.50;72.20
83553;DHT22;73510;50.866;5.420;2023-11-21T15:34:13;12.40;72.30
83553;DHT22;73510;50.866;5.420;2023-11-21T15:36:38;12.40;72.30
83553;DHT22;73510;50.866;5.420;2023-11-21T15:39:04;12.30;72.60
83553;DHT22;73510;50.866;5.420;2023-11-21T15:41:30;12.30;72.60
83553;DHT22;73510;50.866;5.420;2023-11-21T15:43:55;12.30;72.40
83553;DHT22;73510;50.866;5.420;2023-11-21T15:46:22;12.30;72.70
83553;DHT22;73510;50.866;5.420;2023-11-21T15:48:48;12.30;72.70
83553;DHT22;73510;50.866;5.420;2023-11-21T15:51:20;12.30;72.60
83553;DHT22;73510;50.866;5.420;2023-11-21T15:53:45;12.20;72.60
83553;DHT22;73510;50.866;5.420;2023-11-21T15:56:11;12.20;72.50
83553;DHT22;73510;50.866;5.420;2023-11-21T15:58:41;12.20;72.70
83553;DHT22;73510;50.866;5.420;2023-11-21T16:01:11;12.20;72.60
83553;DHT22;73510;50.866;5.420;2023-11-21T16:03:38;12.10;72.60
83553;DHT22;73510;50.866;5.420;2023-11-21T16:06:04;12.10;72.70
83553;DHT22;73510;50.866;5.420;2023-11-21T16:08:31;12.10;72.70
83553;DHT22;73510;50.866;5.420;2023-11-21T16:10:57;12.20;72.80
83553;DHT22;73510;50.866;5.420;2023-11-21T16:13:22;12.10;72.60
83553;DHT22;73510;50.866;5.420;2023-11-21T16:15:48;12.10;72.60
83553;DHT22;73510;50.866;5.420;2023-11-21T16:18:15;12.10;72.50
83553;DHT22;73510;50.866;5.420;2023-11-21T16:20:41;12.10;72.30
83553;DHT22;73510;50.866;5.420;2023-11-21T16:23:06;12.10;71.90
83553;DHT22;73510;50.866;5.420;2023-11-21T16:25:34;12.00;71.80
83553;DHT22;73510;50.866;5.420;2023-11-21T16:28:00;12.00;71.90
83553;DHT22;73510;50.866;5.420;2023-11-21T16:30:32;12.00;71.80
83553;DHT22;73510;50.866;5.420;2023-11-21T16:33:02;11.90;71.80
83553;DHT22;73510;50.866;5.420;2023-11-21T16:35:29;11.90;72.00
83553;DHT22;73510;50.866;5.420;2023-11-21T16:37:54;11.90;72.10
83553;DHT22;73510;50.866;5.420;2023-11-21T16:40:21;11.90;71.90
83553;DHT22;73510;50.866;5.420;2023-11-21T16:42:47;11.90;72.00
83553;DHT22;73510;50.866;5.420;2023-11-21T16:45:13;11.90;71.90